Terminal Aerodrome Forecast
Issued by NWS Newport/Morehead City, NC

Home | Current Version | Previous Version | Graphics & Text | Print | Product List | Glossary On
Versions: 1 2 3 4 5 6 7 8 9 10 11 12 13 14 15
498
FTUS42 KMHX 261120
TAFEWN
TAF
KEWN 261120Z 2612/2712 VRB04KT P6SM SKC
      TEMPO 2612/2613 5SM BR
     FM261600 13005KT P6SM VCSH BKN040
     FM262100 14006KT P6SM BKN050
     FM270600 VRB04KT 6SM -SHRA OVC140=

USA.gov is the U.S. government's official web portal to all federal, state and local government web resources and services.